createdAt,value
2022-10-23T00:01:27.646Z,6.28
2022-10-23T00:04:31.044Z,5.30
2022-10-23T00:07:33.307Z,5.07
2022-10-23T00:10:35.672Z,5.30
2022-10-23T00:13:38.633Z,5.30
2022-10-23T00:16:40.805Z,6.82
2022-10-23T00:19:42.964Z,5.43
2022-10-23T00:22:45.178Z,5.03
2022-10-23T00:25:50.478Z,5.25
2022-10-23T00:28:54.002Z,5.00
2022-10-23T00:31:56.176Z,5.57
2022-10-23T00:34:58.486Z,4.70
2022-10-23T00:38:00.666Z,5.05
2022-10-23T00:41:04.052Z,5.05
2022-10-23T00:44:18.455Z,4.97
2022-10-23T00:47:21.161Z,5.35
2022-10-23T00:50:25.533Z,5.90
2022-10-23T00:53:27.689Z,5.13
2022-10-23T00:56:31.483Z,5.05
2022-10-23T00:59:34.082Z,5.47
2022-10-23T01:02:36.324Z,5.10
2022-10-23T01:06:05.635Z,5.53
2022-10-23T01:09:23.780Z,5.05
2022-10-23T01:12:33.183Z,5.35
2022-10-23T01:15:44.537Z,6.23
2022-10-23T01:18:59.104Z,4.80
2022-10-23T01:22:16.373Z,5.03
2022-10-23T01:25:42.380Z,4.57
2022-10-23T01:29:21.834Z,5.10
2022-10-23T01:32:40.369Z,4.80
2022-10-23T01:35:50.164Z,5.07
2022-10-23T01:38:58.835Z,5.47
2022-10-23T01:42:08.547Z,5.78
2022-10-23T01:45:21.668Z,5.10
2022-10-23T01:48:28.441Z,4.70
2022-10-23T01:51:33.209Z,4.90
2022-10-23T01:54:44.545Z,6.20
2022-10-23T01:57:48.842Z,5.55
2022-10-23T02:00:52.914Z,4.80
2022-10-23T02:07:04.926Z,5.30
2022-10-23T02:10:09.479Z,6.25
2022-10-23T02:13:19.213Z,5.20
2022-10-23T02:16:42.338Z,5.00
2022-10-23T02:20:01.456Z,5.00
2022-10-23T02:23:21.885Z,5.00
2022-10-23T02:26:28.600Z,4.97
2022-10-23T02:29:35.758Z,5.22
2022-10-23T02:32:42.600Z,5.22
2022-10-23T02:35:48.289Z,4.87
2022-10-23T02:38:56.258Z,5.13
2022-10-23T02:42:09.371Z,5.25
2022-10-23T02:45:36.352Z,5.72
2022-10-23T02:48:51.668Z,5.63
2022-10-23T02:52:23.638Z,5.37
2022-10-23T02:55:29.010Z,4.95
2022-10-23T02:58:31.143Z,5.30
2022-10-23T03:01:44.699Z,5.13
2022-10-23T03:04:47.971Z,5.13
2022-10-23T03:07:50.588Z,5.33
2022-10-23T03:10:53.743Z,5.63
2022-10-23T03:13:57.414Z,4.88
2022-10-23T03:16:59.630Z,4.90
2022-10-23T03:20:01.956Z,5.88
2022-10-23T03:23:04.203Z,5.33
2022-10-23T03:26:06.387Z,5.53
2022-10-23T03:29:13.858Z,5.13
2022-10-23T03:32:19.300Z,4.60
2022-10-23T03:35:21.462Z,5.15
2022-10-23T03:38:23.707Z,5.00
2022-10-23T03:41:25.917Z,5.05
2022-10-23T03:44:28.397Z,5.10
2022-10-23T03:47:35.211Z,5.50
2022-10-23T03:50:37.452Z,4.85
2022-10-23T03:53:40.886Z,4.93
2022-10-23T03:56:43.030Z,5.35
2022-10-23T03:59:45.260Z,5.03
2022-10-23T04:02:47.889Z,5.57
2022-10-23T04:05:52.315Z,5.40
2022-10-23T04:08:56.987Z,4.93
2022-10-23T04:11:59.152Z,5.28
2022-10-23T04:15:03.912Z,4.70
2022-10-23T04:18:06.069Z,4.57
2022-10-23T04:21:08.662Z,5.10
2022-10-23T04:24:11.046Z,5.23
2022-10-23T04:27:13.594Z,4.72
2022-10-23T04:30:15.952Z,5.10
2022-10-23T04:33:20.716Z,5.07
2022-10-23T04:36:25.630Z,5.07
2022-10-23T04:39:27.976Z,4.90
2022-10-23T04:42:30.189Z,4.32
2022-10-23T04:45:34.993Z,4.93
2022-10-23T04:48:37.146Z,4.55
2022-10-23T04:51:55.818Z,4.65
2022-10-23T04:55:25.429Z,5.50
2022-10-23T04:58:47.872Z,5.05
2022-10-23T05:01:50.344Z,4.85
2022-10-23T05:04:53.685Z,4.53
2022-10-23T05:08:15.594Z,4.65
2022-10-23T05:11:40.110Z,4.40
2022-10-23T05:14:44.009Z,4.50
2022-10-23T05:17:49.774Z,4.90
2022-10-23T05:21:01.005Z,4.57
2022-10-23T05:24:03.283Z,4.55
2022-10-23T05:27:05.521Z,4.40
2022-10-23T05:30:08.294Z,5.40
2022-10-23T05:33:12.643Z,4.70
2022-10-23T05:36:17.531Z,4.38
2022-10-23T05:39:20.857Z,4.50
2022-10-23T05:42:23.092Z,4.50
2022-10-23T05:45:26.532Z,4.50
2022-10-23T05:48:51.103Z,4.80
2022-10-23T05:52:11.708Z,4.40
2022-10-23T05:55:29.336Z,4.18
2022-10-23T05:58:50.065Z,4.67
2022-10-23T06:02:04.132Z,5.03
2022-10-23T06:05:23.917Z,4.80
2022-10-23T06:08:49.265Z,4.60
2022-10-23T06:11:54.092Z,4.13
2022-10-23T06:14:58.016Z,4.53
2022-10-23T06:18:10.540Z,4.45
2022-10-23T06:21:23.360Z,4.43
2022-10-23T06:24:26.197Z,4.57
2022-10-23T06:27:33.923Z,4.78
2022-10-23T06:30:39.319Z,5.30
2022-10-23T06:33:42.390Z,5.07
2022-10-23T06:36:45.462Z,5.10
2022-10-23T06:40:11.027Z,5.53
2022-10-23T06:43:50.037Z,4.85
2022-10-23T06:47:14.529Z,4.80
2022-10-23T06:50:38.332Z,5.28
2022-10-23T06:53:46.613Z,7.18
2022-10-23T06:57:14.634Z,4.90
2022-10-23T07:00:21.669Z,5.22
2022-10-23T07:03:28.410Z,4.30
2022-10-23T07:06:30.902Z,4.20
2022-10-23T07:09:36.159Z,4.75
2022-10-23T07:13:00.691Z,4.75
2022-10-23T07:16:17.889Z,4.72
2022-10-23T07:19:20.314Z,5.07
2022-10-23T07:22:33.200Z,4.32
2022-10-23T07:25:45.783Z,4.32
2022-10-23T07:28:55.222Z,4.30
2022-10-23T07:32:04.432Z,5.22
2022-10-23T07:35:26.538Z,4.67
2022-10-23T07:38:39.180Z,4.50
2022-10-23T07:41:41.363Z,4.82
2022-10-23T07:44:43.605Z,4.53
2022-10-23T07:47:51.182Z,4.32
2022-10-23T07:50:58.310Z,4.47
2022-10-23T07:54:00.572Z,4.50
2022-10-23T07:57:25.616Z,4.82
2022-10-23T08:00:40.642Z,3.97
2022-10-23T08:03:50.990Z,4.30
2022-10-23T08:06:53.671Z,4.33
2022-10-23T08:09:55.917Z,4.10
2022-10-23T08:12:58.105Z,4.63
2022-10-23T08:16:19.088Z,5.00
2022-10-23T08:19:30.330Z,4.57
2022-10-23T08:22:36.824Z,4.10
2022-10-23T08:25:40.615Z,3.83
2022-10-23T08:28:44.125Z,4.68
2022-10-23T08:31:46.697Z,4.28
2022-10-23T08:34:56.041Z,4.28
2022-10-23T08:37:59.715Z,4.40
2022-10-23T08:41:06.474Z,4.95
2022-10-23T08:44:35.431Z,4.80
2022-10-23T08:47:46.597Z,4.47
2022-10-23T08:51:43.997Z,4.60
2022-10-23T08:54:54.733Z,4.33
2022-10-23T08:58:07.657Z,4.20
2022-10-23T09:01:33.023Z,4.13
2022-10-23T09:04:35.378Z,4.13
2022-10-23T09:08:18.408Z,4.78
2022-10-23T09:11:26.181Z,4.43
2022-10-23T09:14:46.909Z,4.57
2022-10-23T09:17:56.040Z,4.97
2022-10-23T09:20:58.468Z,4.47
2022-10-23T09:24:00.632Z,4.78
2022-10-23T09:30:05.924Z,4.22
2022-10-23T09:33:22.252Z,4.30
2022-10-23T09:36:25.916Z,4.28
2022-10-23T09:39:34.796Z,4.70
2022-10-23T09:42:37.046Z,5.03
2022-10-23T09:45:42.405Z,4.63
2022-10-23T09:48:59.822Z,4.38
2022-10-23T09:52:10.537Z,4.60
2022-10-23T09:55:24.864Z,4.40
2022-10-23T09:58:33.531Z,4.73
2022-10-23T10:01:47.092Z,4.50
2022-10-23T10:05:24.786Z,4.70
2022-10-23T10:08:34.186Z,4.40
2022-10-23T10:11:39.199Z,4.45
2022-10-23T10:14:53.502Z,5.23
2022-10-23T10:18:10.652Z,5.20
2022-10-23T10:21:23.057Z,4.18
2022-10-23T10:24:51.149Z,4.38
2022-10-23T10:28:10.317Z,5.10
2022-10-23T10:31:33.521Z,4.27
2022-10-23T10:34:51.350Z,4.13
2022-10-23T10:37:56.637Z,4.38
2022-10-23T10:41:36.151Z,4.00
2022-10-23T10:44:50.202Z,4.68
2022-10-23T10:48:11.937Z,4.07
2022-10-23T10:51:51.242Z,4.65
2022-10-23T10:55:14.949Z,4.60
2022-10-23T10:58:41.470Z,4.88
2022-10-23T11:02:13.913Z,4.63
2022-10-23T11:05:26.418Z,4.30
2022-10-23T11:08:49.841Z,4.40
2022-10-23T11:11:59.976Z,4.28
2022-10-23T11:15:02.208Z,5.22
2022-10-23T11:18:13.268Z,5.38
2022-10-23T11:21:35.224Z,4.87
2022-10-23T11:24:52.387Z,6.32
2022-10-23T11:28:44.651Z,5.15
2022-10-23T11:32:21.922Z,5.57
2022-10-23T11:35:38.214Z,4.90
2022-10-23T11:38:43.985Z,4.73
2022-10-23T11:42:00.807Z,4.75
2022-10-23T11:45:03.120Z,4.25
2022-10-23T11:48:14.105Z,5.57
2022-10-23T11:51:35.869Z,5.90
2022-10-23T11:54:38.036Z,4.73
2022-10-23T11:57:40.260Z,4.40
2022-10-23T12:01:12.165Z,4.97
2022-10-23T12:04:14.326Z,7.00
2022-10-23T12:07:26.229Z,5.13
2022-10-23T12:10:31.180Z,5.53
2022-10-23T12:13:39.315Z,4.70
2022-10-23T12:16:41.496Z,5.05
2022-10-23T12:19:48.598Z,5.18
2022-10-23T12:23:04.339Z,4.78
2022-10-23T12:26:30.303Z,4.47
2022-10-23T12:29:48.540Z,4.85
2022-10-23T12:33:11.433Z,4.20
2022-10-23T12:36:19.366Z,4.55
2022-10-23T12:39:33.160Z,4.88
2022-10-23T12:42:36.293Z,4.60
2022-10-23T12:45:40.693Z,4.00
2022-10-23T12:48:50.608Z,4.72
2022-10-23T12:52:01.732Z,5.10
2022-10-23T12:55:13.281Z,4.45
2022-10-23T12:58:47.581Z,4.70
2022-10-23T13:01:52.852Z,4.38
2022-10-23T13:04:58.232Z,4.63
2022-10-23T13:08:02.562Z,4.40
2022-10-23T13:11:22.165Z,5.00
2022-10-23T13:15:03.453Z,4.40
2022-10-23T13:18:07.088Z,4.30
2022-10-23T13:21:26.541Z,4.28
2022-10-23T13:24:30.673Z,4.93
2022-10-23T13:27:34.499Z,4.40
2022-10-23T13:30:39.365Z,4.63
2022-10-23T13:33:45.733Z,4.72
2022-10-23T13:37:24.100Z,4.75
2022-10-23T13:40:27.900Z,4.38
2022-10-23T13:43:31.890Z,4.70
2022-10-23T13:46:34.029Z,5.27
2022-10-23T13:49:36.194Z,5.85
2022-10-23T13:52:38.340Z,4.32
2022-10-23T13:55:46.299Z,4.47
2022-10-23T13:58:49.524Z,4.72
2022-10-23T14:01:52.295Z,4.80
2022-10-23T14:04:54.580Z,4.40
2022-10-23T14:07:56.745Z,4.30
2022-10-23T14:10:58.893Z,4.05
2022-10-23T14:14:01.085Z,5.15
2022-10-23T14:17:03.250Z,4.43
2022-10-23T14:20:06.642Z,4.20
2022-10-23T14:23:08.987Z,4.38
2022-10-23T14:26:14.620Z,5.07
2022-10-23T14:29:23.043Z,4.40
2022-10-23T14:32:26.437Z,3.97
2022-10-23T14:35:28.868Z,4.05
2022-10-23T14:38:31.259Z,4.22
2022-10-23T14:41:33.425Z,4.57
2022-10-23T14:44:35.607Z,4.40
2022-10-23T14:47:37.907Z,4.07
2022-10-23T14:50:44.383Z,4.55
2022-10-23T14:53:47.967Z,4.15
2022-10-23T14:56:50.142Z,4.55
2022-10-23T14:59:52.292Z,3.58
2022-10-23T15:02:54.465Z,4.13
2022-10-23T15:05:56.908Z,3.88
2022-10-23T15:08:59.430Z,4.07
2022-10-23T15:12:02.111Z,3.60
2022-10-23T15:15:06.052Z,4.15
2022-10-23T15:18:08.388Z,4.27
2022-10-23T15:21:10.597Z,4.05
2022-10-23T15:24:12.807Z,3.88
2022-10-23T15:27:15.187Z,3.95
2022-10-23T15:30:18.035Z,4.10
2022-10-23T15:33:20.820Z,3.80
2022-10-23T15:36:23.098Z,3.65
2022-10-23T15:39:33.782Z,3.70
2022-10-23T15:42:36.041Z,4.82
2022-10-23T15:45:39.081Z,3.92
2022-10-23T15:48:41.232Z,3.43
2022-10-23T15:51:44.277Z,4.60
2022-10-23T15:54:46.434Z,3.40
2022-10-23T15:57:48.629Z,3.40
2022-10-23T16:00:50.812Z,4.25
2022-10-23T16:03:53.073Z,3.57
2022-10-23T16:06:55.317Z,3.85
2022-10-23T16:09:58.002Z,3.90
2022-10-23T16:13:00.503Z,3.80
2022-10-23T16:16:03.755Z,3.92
2022-10-23T16:19:06.129Z,3.47
2022-10-23T16:22:08.513Z,3.78
2022-10-23T16:25:10.848Z,3.78
2022-10-23T16:28:13.081Z,3.60
2022-10-23T16:31:20.209Z,3.67
2022-10-23T16:34:23.373Z,4.00
2022-10-23T16:37:25.521Z,3.75
2022-10-23T16:40:34.261Z,3.35
2022-10-23T16:43:54.970Z,3.60
2022-10-23T16:47:19.917Z,3.95
2022-10-23T16:50:23.072Z,3.23
2022-10-23T16:53:28.945Z,4.07
2022-10-23T16:56:32.165Z,3.65
2022-10-23T16:59:34.323Z,3.35
2022-10-23T17:02:37.910Z,3.15
2022-10-23T17:05:40.491Z,3.80
2022-10-23T17:08:43.130Z,3.42
2022-10-23T17:11:46.100Z,4.05
2022-10-23T17:14:48.283Z,3.30
2022-10-23T17:17:50.478Z,3.17
2022-10-23T17:21:01.613Z,3.63
2022-10-23T17:24:04.514Z,3.40
2022-10-23T17:27:06.930Z,3.58
2022-10-23T17:30:12.702Z,3.53
2022-10-23T17:33:15.419Z,4.22
2022-10-23T17:36:18.863Z,2.97
2022-10-23T17:39:24.067Z,3.50
2022-10-23T17:42:26.286Z,3.20
2022-10-23T17:45:28.659Z,2.85
2022-10-23T17:48:31.082Z,3.10
2022-10-23T17:51:35.372Z,3.20
2022-10-23T17:54:37.568Z,2.80
2022-10-23T17:57:39.950Z,2.92
2022-10-23T18:00:42.197Z,2.60
2022-10-23T18:03:44.658Z,3.17
2022-10-23T18:06:50.624Z,3.33
2022-10-23T18:09:53.115Z,3.83
2022-10-23T18:12:55.364Z,2.97
2022-10-23T18:16:04.544Z,3.30
2022-10-23T18:19:06.699Z,2.72
2022-10-23T18:22:08.990Z,3.93
2022-10-23T18:25:11.525Z,2.88
2022-10-23T18:28:13.733Z,2.90
2022-10-23T18:31:17.835Z,3.20
2022-10-23T18:34:22.711Z,4.40
2022-10-23T18:37:28.854Z,2.93
2022-10-23T18:40:35.525Z,2.50
2022-10-23T18:43:43.758Z,2.80
2022-10-23T18:46:47.560Z,3.08
2022-10-23T18:49:49.700Z,2.80
2022-10-23T18:52:54.716Z,2.60
2022-10-23T18:55:56.861Z,2.90
2022-10-23T18:59:01.850Z,2.80
2022-10-23T19:02:04.188Z,3.03
2022-10-23T19:05:07.633Z,2.90
2022-10-23T19:08:11.107Z,2.87
2022-10-23T19:11:15.325Z,2.65
2022-10-23T19:14:17.601Z,2.97
2022-10-23T19:17:23.948Z,2.88
2022-10-23T19:23:36.390Z,2.73
2022-10-23T19:26:40.455Z,2.67
2022-10-23T19:29:45.102Z,2.83
2022-10-23T19:32:48.298Z,2.58
2022-10-23T19:35:50.505Z,2.55
2022-10-23T19:38:52.694Z,2.70
2022-10-23T19:41:55.223Z,2.50
2022-10-23T19:44:57.363Z,2.80
2022-10-23T19:47:59.616Z,2.63
2022-10-23T19:51:01.791Z,2.85
2022-10-23T19:54:04.574Z,2.83
2022-10-23T19:57:06.753Z,2.60
2022-10-23T20:00:09.531Z,3.00
2022-10-23T20:03:14.299Z,2.35
2022-10-23T20:06:29.012Z,2.75
2022-10-23T20:09:31.260Z,2.53
2022-10-23T20:12:33.402Z,2.35
2022-10-23T20:15:38.916Z,2.70
2022-10-23T20:18:41.073Z,2.80
2022-10-23T20:21:46.065Z,2.60
2022-10-23T20:24:48.345Z,2.73
2022-10-23T20:27:50.511Z,2.40
2022-10-23T20:30:52.665Z,2.50
2022-10-23T20:33:56.084Z,2.50
2022-10-23T20:36:58.540Z,2.97
2022-10-23T20:40:00.694Z,3.00
2022-10-23T20:43:03.172Z,2.83
2022-10-23T20:46:07.797Z,2.60
2022-10-23T20:49:10.258Z,2.83
2022-10-23T20:52:12.426Z,2.72
2022-10-23T20:55:14.575Z,2.43
2022-10-23T20:58:16.711Z,2.42
2022-10-23T21:01:19.330Z,2.60
2022-10-23T21:04:25.099Z,2.50
2022-10-23T21:07:27.257Z,2.80
2022-10-23T21:10:29.417Z,2.20
2022-10-23T21:13:33.030Z,2.28
2022-10-23T21:16:40.727Z,3.45
2022-10-23T21:19:42.937Z,2.83
2022-10-23T21:22:45.463Z,2.63
2022-10-23T21:25:48.416Z,2.37
2022-10-23T21:29:00.916Z,2.90
2022-10-23T21:32:15.698Z,2.50
2022-10-23T21:35:17.859Z,2.38
2022-10-23T21:38:20.039Z,2.47
2022-10-23T21:41:28.297Z,2.80
2022-10-23T21:44:30.500Z,2.45
2022-10-23T21:47:33.962Z,2.50
2022-10-23T21:50:36.253Z,2.47
2022-10-23T21:53:38.449Z,2.63
2022-10-23T21:56:49.706Z,2.47
2022-10-23T21:59:54.423Z,2.95
2022-10-23T22:02:56.581Z,2.55
2022-10-23T22:05:58.761Z,2.47
2022-10-23T22:09:00.955Z,2.67
2022-10-23T22:12:03.210Z,2.50
2022-10-23T22:15:06.012Z,2.33
2022-10-23T22:18:08.148Z,2.72
2022-10-23T22:21:14.075Z,2.65
2022-10-23T22:24:17.670Z,2.92
2022-10-23T22:27:19.908Z,2.67
2022-10-23T22:30:22.104Z,2.30
2022-10-23T22:33:24.323Z,2.63
2022-10-23T22:36:27.160Z,3.22
2022-10-23T22:39:29.377Z,2.35
2022-10-23T22:42:31.590Z,2.70
2022-10-23T22:45:33.769Z,2.80
2022-10-23T22:48:36.653Z,2.25
2022-10-23T22:51:39.808Z,2.80
2022-10-23T22:54:42.021Z,2.75
2022-10-23T22:57:44.420Z,2.67
2022-10-23T23:00:47.323Z,3.05
2022-10-23T23:03:50.366Z,4.13
2022-10-23T23:06:52.581Z,3.05
2022-10-23T23:09:54.765Z,2.47
2022-10-23T23:12:56.957Z,2.80
2022-10-23T23:15:59.516Z,2.20
2022-10-23T23:19:03.485Z,2.60
2022-10-23T23:22:07.277Z,2.78
2022-10-23T23:25:09.868Z,2.88
2022-10-23T23:28:13.353Z,2.43
2022-10-23T23:31:22.343Z,2.33
2022-10-23T23:34:24.536Z,3.00
2022-10-23T23:37:26.966Z,2.40
2022-10-23T23:40:29.100Z,3.47
2022-10-23T23:43:32.155Z,3.00
2022-10-23T23:46:34.375Z,2.38
2022-10-23T23:49:36.586Z,2.58
2022-10-23T23:52:38.765Z,2.83
2022-10-23T23:55:40.948Z,2.65
2022-10-23T23:58:43.353Z,2.80
